Time;durP1;ratioP1;P1;durP2;ratioP2;P2;SDS_P1;SDS_P2;PMS_P1;PMS_P2;Temp;Humidity;BMP_temperature;BMP_pressure;BME280_temperature;BME280_humidity;BME280_pressure;Samples;Min_cycle;Max_cycle;Signal;HPM_P1;HPM_P2
2021/01/13 00:01:29;;;;;;;87.27;37.53;;;1.30;99.90;;;;;;6160583;28;20047;-76
2021/01/13 00:04:31;;;;;;;83.25;35.35;;;1.40;99.90;;;;;;6164293;28;22812;-77
2021/01/13 00:07:32;;;;;;;85.03;41.07;;;1.30;99.90;;;;;;6161473;28;20047;-77
2021/01/13 00:10:33;;;;;;;72.97;35.90;;;1.40;99.90;;;;;;6163032;28;20102;-77
2021/01/13 00:13:34;;;;;;;76.37;34.50;;;1.40;99.90;;;;;;6163709;28;20050;-77
2021/01/13 00:16:37;;;;;;;87.90;35.87;;;1.40;99.90;;;;;;6164358;28;20047;-77
2021/01/13 00:19:38;;;;;;;91.40;37.83;;;1.40;99.90;;;;;;6162362;28;20093;-77
2021/01/13 00:22:39;;;;;;;97.60;36.97;;;1.50;99.90;;;;;;6162712;28;20054;-77
2021/01/13 00:25:41;;;;;;;116.13;43.47;;;1.50;99.90;;;;;;6164176;28;20059;-77
2021/01/13 00:28:42;;;;;;;116.07;44.53;;;1.40;99.90;;;;;;6185173;28;20047;-77
2021/01/13 00:31:45;;;;;;;141.27;46.70;;;1.50;99.90;;;;;;6184982;28;20512;-77
2021/01/13 00:34:47;;;;;;;115.07;43.60;;;1.50;99.90;;;;;;6187374;28;20056;-77
2021/01/13 00:37:49;;;;;;;113.83;45.53;;;1.50;99.90;;;;;;6192275;28;20092;-77
2021/01/13 00:40:50;;;;;;;111.60;46.37;;;1.60;99.90;;;;;;6190509;28;20448;-77
2021/01/13 00:43:53;;;;;;;111.23;46.03;;;1.70;99.90;;;;;;6197420;28;20049;-78
2021/01/13 00:46:56;;;;;;;132.00;49.23;;;1.80;99.90;;;;;;6182092;28;20508;-77
2021/01/13 00:49:57;;;;;;;115.13;46.87;;;1.80;99.90;;;;;;6184574;28;20429;-78
2021/01/13 00:52:58;;;;;;;110.50;48.73;;;1.90;99.90;;;;;;6186622;28;20419;-76
2021/01/13 00:55:59;;;;;;;115.17;47.53;;;2.00;99.90;;;;;;6189656;28;20074;-77
2021/01/13 00:59:01;;;;;;;131.97;51.73;;;2.10;99.90;;;;;;6183628;28;20057;-77
2021/01/13 01:02:03;;;;;;;111.93;48.13;;;2.10;99.90;;;;;;6185858;28;20042;-77
2021/01/13 01:05:05;;;;;;;139.07;52.70;;;2.20;99.90;;;;;;6185848;28;20054;-77
2021/01/13 01:08:06;;;;;;;171.47;58.23;;;2.20;99.90;;;;;;6184033;28;20046;-77
2021/01/13 01:11:07;;;;;;;139.50;51.03;;;2.30;99.90;;;;;;6189294;28;20051;-78
2021/01/13 01:14:10;;;;;;;118.00;49.60;;;2.30;99.90;;;;;;6183535;28;20047;-77
2021/01/13 01:17:12;;;;;;;128.13;48.77;;;2.30;99.90;;;;;;6187235;28;20137;-77
2021/01/13 01:20:15;;;;;;;125.20;47.07;;;2.30;99.90;;;;;;6184043;28;20177;-77
2021/01/13 01:23:16;;;;;;;109.43;45.87;;;2.30;99.90;;;;;;6186404;28;20050;-77
2021/01/13 01:26:17;;;;;;;128.10;49.63;;;2.30;99.90;;;;;;6183543;28;20038;-77
2021/01/13 01:29:19;;;;;;;107.27;44.43;;;2.20;99.90;;;;;;6186554;28;20057;-77
2021/01/13 01:32:21;;;;;;;138.03;47.57;;;2.10;99.90;;;;;;6193476;28;20515;-77
2021/01/13 01:35:22;;;;;;;108.10;43.90;;;2.10;99.90;;;;;;6189121;28;20046;-77
2021/01/13 01:38:24;;;;;;;140.90;50.77;;;2.10;99.90;;;;;;6180522;28;20055;-77
2021/01/13 01:41:25;;;;;;;115.43;43.30;;;2.00;99.90;;;;;;6186321;28;20046;-77
2021/01/13 01:44:27;;;;;;;104.00;45.63;;;1.90;99.90;;;;;;6186899;28;20054;-77
2021/01/13 01:48:03;;;;;;;112.63;47.13;;;1.90;99.90;;;;;;6188749;28;20471;-78
2021/01/13 01:51:06;;;;;;;109.37;43.47;;;1.80;99.90;;;;;;6186437;28;20049;-77
2021/01/13 01:54:16;;;;;;;107.00;43.33;;;1.70;99.90;;;;;;6186317;28;20057;-77
2021/01/13 01:57:23;;;;;;;112.03;41.90;;;1.70;99.90;;;;;;6188151;28;20062;-77
2021/01/13 02:00:30;;;;;;;121.10;46.23;;;1.60;99.90;;;;;;6184039;28;20046;-77
2021/01/13 02:03:40;;;;;;;142.47;54.00;;;1.60;99.90;;;;;;6169591;28;20111;-78
2021/01/13 02:07:19;;;;;;;96.37;39.37;;;1.50;99.90;;;;;;6161350;28;20135;-77
2021/01/13 02:10:20;;;;;;;135.93;45.30;;;1.40;99.90;;;;;;6164861;28;20050;-77
2021/01/13 02:13:21;;;;;;;130.90;45.40;;;1.30;99.90;;;;;;6163903;28;20162;-77
2021/01/13 02:16:23;;;;;;;111.97;45.20;;;1.30;99.90;;;;;;6161901;28;20047;-77
2021/01/13 02:19:58;;;;;;;130.60;45.80;;;1.30;99.90;;;;;;6160536;28;20063;-77
2021/01/13 02:23:04;;;;;;;123.17;47.57;;;1.30;99.90;;;;;;6164281;28;20129;-77
2021/01/13 02:26:59;;;;;;;128.63;48.70;;;1.30;99.90;;;;;;6161628;28;20465;-77
2021/01/13 02:30:05;;;;;;;125.97;47.67;;;1.30;99.90;;;;;;6144803;28;20130;-77
2021/01/13 02:33:19;;;;;;;127.97;49.43;;;1.30;99.90;;;;;;6149325;28;20424;-78
2021/01/13 02:36:31;;;;;;;131.70;48.63;;;1.30;99.90;;;;;;6199714;28;20042;-77
2021/01/13 02:39:35;;;;;;;146.73;52.87;;;1.30;99.90;;;;;;6173161;28;20043;-77
2021/01/13 02:42:38;;;;;;;131.30;46.83;;;1.30;99.90;;;;;;6173079;28;20617;-77
2021/01/13 02:45:43;;;;;;;136.57;49.47;;;1.30;99.90;;;;;;6187088;28;20154;-77
2021/01/13 02:48:44;;;;;;;136.40;46.47;;;1.40;99.90;;;;;;6188058;28;20077;-77
2021/01/13 02:51:51;;;;;;;120.53;46.73;;;1.40;99.90;;;;;;6169968;28;20050;-77
2021/01/13 02:54:55;;;;;;;130.50;49.10;;;1.40;99.90;;;;;;6172288;28;20133;-77
2021/01/13 02:57:57;;;;;;;107.17;43.70;;;1.40;99.90;;;;;;6188309;28;20045;-77
2021/01/13 03:01:01;;;;;;;127.17;46.03;;;1.40;99.90;;;;;;6187019;28;20500;-77
2021/01/13 03:04:03;;;;;;;131.77;42.83;;;1.50;99.90;;;;;;6186807;28;20051;-77
2021/01/13 03:07:11;;;;;;;97.83;40.27;;;1.50;99.90;;;;;;6188644;28;20142;-77
2021/01/13 03:10:13;;;;;;;;;;;1.40;99.90;;;;;;6189511;28;20053;-77
2021/01/13 03:13:15;;;;;;;106.83;38.77;;;1.40;99.90;;;;;;6186616;28;19929;-77
2021/01/13 03:16:17;;;;;;;115.77;42.37;;;1.40;99.90;;;;;;6189761;28;20412;-77
2021/01/13 03:19:26;;;;;;;105.47;40.40;;;1.30;99.90;;;;;;6184889;28;20575;-77
2021/01/13 03:22:32;;;;;;;117.17;44.17;;;1.30;99.90;;;;;;6191756;28;20579;-77
2021/01/13 03:25:37;;;;;;;106.93;42.30;;;1.30;99.90;;;;;;6199396;28;20164;-77
2021/01/13 03:28:41;;;;;;;124.67;42.73;;;1.30;99.90;;;;;;6191514;28;20109;-76
2021/01/13 03:31:55;;;;;;;103.07;39.63;;;1.30;99.90;;;;;;6192823;28;20408;-77
2021/01/13 03:35:06;;;;;;;109.50;38.97;;;1.30;99.90;;;;;;6192027;28;20042;-77
2021/01/13 03:38:13;;;;;;;106.23;41.90;;;1.30;99.90;;;;;;6185585;28;20416;-77
2021/01/13 03:41:17;;;;;;;112.50;43.20;;;1.30;99.90;;;;;;6186950;28;20424;-77
2021/01/13 03:44:26;;;;;;;119.17;42.07;;;1.30;99.90;;;;;;6187135;28;20568;-77
2021/01/13 03:48:02;;;;;;;105.03;42.20;;;1.30;99.90;;;;;;6191887;28;20512;-78
2021/01/13 03:51:05;;;;;;;104.10;38.07;;;1.40;99.90;;;;;;6189828;28;20125;-76
2021/01/13 03:54:08;;;;;;;105.03;41.67;;;1.40;99.90;;;;;;6186409;28;20576;-78
2021/01/13 03:57:10;;;;;;;115.30;39.53;;;1.40;99.90;;;;;;6186154;28;20061;-77
2021/01/13 04:00:13;;;;;;;112.73;41.13;;;1.50;99.90;;;;;;6187784;28;20053;-77
2021/01/13 04:03:26;;;;;;;98.63;40.37;;;1.50;99.90;;;;;;6190112;28;20157;-77
2021/01/13 04:06:28;;;;;;;99.87;37.37;;;1.50;99.90;;;;;;6185749;28;20043;-76
2021/01/13 04:09:32;;;;;;;101.60;37.00;;;1.50;99.90;;;;;;6187346;28;20412;-76
2021/01/13 04:12:51;;;;;;;113.57;40.30;;;1.60;99.90;;;;;;6191002;28;20054;-77
2021/01/13 04:15:59;;;;;;;109.47;40.03;;;1.60;99.90;;;;;;6188273;28;20051;-77
2021/01/13 04:19:03;;;;;;;106.63;38.83;;;1.60;99.90;;;;;;6187862;28;20051;-76
2021/01/13 04:22:05;;;;;;;95.40;35.00;;;1.60;99.90;;;;;;6178121;28;20122;-76
2021/01/13 04:25:08;;;;;;;104.50;37.37;;;1.70;99.90;;;;;;6187549;28;20053;-77
2021/01/13 04:28:10;;;;;;;103.63;38.00;;;1.70;99.90;;;;;;6184666;28;20169;-76
2021/01/13 04:31:12;;;;;;;93.83;34.57;;;1.70;99.90;;;;;;6185174;28;20507;-77
2021/01/13 04:34:15;;;;;;;112.30;39.43;;;1.70;99.90;;;;;;6186879;28;20049;-77
2021/01/13 04:37:20;;;;;;;96.53;34.03;;;1.70;99.90;;;;;;6184168;28;20178;-77
2021/01/13 04:40:32;;;;;;;85.70;34.73;;;1.70;99.90;;;;;;6185802;28;20035;-77
2021/01/13 04:43:50;;;;;;;80.23;34.00;;;1.70;99.90;;;;;;6184887;28;20039;-77
2021/01/13 04:47:00;;;;;;;89.82;33.35;;;1.70;99.90;;;;;;6187070;28;20062;-76
2021/01/13 04:50:03;;;;;;;93.10;34.47;;;1.70;99.90;;;;;;6185466;28;20043;-77
2021/01/13 04:53:10;;;;;;;100.30;37.23;;;1.70;99.90;;;;;;6182523;28;20500;-76
2021/01/13 04:56:15;;;;;;;89.78;33.47;;;1.70;99.90;;;;;;6187533;28;20059;-76
2021/01/13 04:59:53;;;;;;;90.40;35.97;;;1.70;99.90;;;;;;6187809;28;20133;-77
2021/01/13 05:03:40;;;;;;;90.27;34.77;;;1.60;99.90;;;;;;6188405;28;20046;-76
2021/01/13 05:06:49;;;;;;;85.23;35.20;;;1.50;99.90;;;;;;6188279;28;20066;-77
2021/01/13 05:09:59;;;;;;;87.07;31.13;;;1.50;99.90;;;;;;6191738;28;20450;-77
2021/01/13 05:13:00;;;;;;;77.57;30.10;;;1.40;99.90;;;;;;6191139;28;20050;-76
2021/01/13 05:16:10;;;;;;;68.83;28.67;;;1.30;99.90;;;;;;6187719;28;20117;-76
2021/01/13 05:19:21;;;;;;;82.83;28.50;;;1.30;99.90;;;;;;6186807;28;20054;-76
2021/01/13 05:22:26;;;;;;;72.80;31.07;;;1.20;99.90;;;;;;6183898;28;20042;-77
2021/01/13 05:25:41;;;;;;;68.73;26.03;;;1.10;99.90;;;;;;6183575;28;20090;-76
2021/01/13 05:29:25;;;;;;;78.37;26.97;;;1.10;99.90;;;;;;6188535;28;20078;-77
2021/01/13 05:32:28;;;;;;;73.60;28.33;;;1.00;99.90;;;;;;6189201;28;20038;-77
2021/01/13 05:35:30;;;;;;;88.17;32.20;;;1.00;99.90;;;;;;6185869;28;20078;-77
2021/01/13 05:39:02;;;;;;;77.13;27.43;;;0.90;99.90;;;;;;6183587;28;20039;-77
2021/01/13 05:42:04;;;;;;;70.67;28.13;;;0.90;99.90;;;;;;6188314;28;20492;-77
2021/01/13 05:45:07;;;;;;;72.07;28.40;;;0.80;99.90;;;;;;6192785;28;20153;-76
2021/01/13 05:48:16;;;;;;;73.43;31.03;;;0.70;99.90;;;;;;6185657;28;20046;-76
2021/01/13 05:51:27;;;;;;;73.50;29.97;;;0.70;99.90;;;;;;6184390;28;20043;-76
2021/01/13 05:54:32;;;;;;;70.27;28.87;;;0.80;99.90;;;;;;6186225;28;20448;-76
2021/01/13 05:57:35;;;;;;;84.77;32.20;;;0.70;99.90;;;;;;6186188;28;20547;-77
2021/01/13 06:00:37;;;;;;;76.00;31.17;;;0.70;99.90;;;;;;6184401;28;20043;-77
2021/01/13 06:03:46;;;;;;;77.33;27.70;;;0.60;99.90;;;;;;6185222;28;20039;-77
2021/01/13 06:06:57;;;;;;;82.23;30.80;;;0.60;99.90;;;;;;6186316;28;20480;-76
2021/01/13 06:10:02;;;;;;;109.07;34.83;;;0.60;99.90;;;;;;6189030;28;20043;-76
2021/01/13 06:13:06;;;;;;;86.10;30.20;;;0.50;99.90;;;;;;6191885;28;20443;-77
2021/01/13 06:16:10;;;;;;;80.67;29.00;;;0.50;99.90;;;;;;6190210;28;20043;-77
2021/01/13 06:19:12;;;;;;;70.27;26.67;;;0.50;99.90;;;;;;6190145;28;20065;-77
2021/01/13 06:22:14;;;;;;;67.93;26.87;;;0.50;99.90;;;;;;6188107;28;20046;-76
2021/01/13 06:25:24;;;;;;;70.23;26.83;;;0.50;99.90;;;;;;6190072;28;20137;-76
2021/01/13 06:28:28;;;;;;;67.10;26.73;;;0.50;99.90;;;;;;6197630;28;20054;-76
2021/01/13 06:31:41;;;;;;;69.57;26.47;;;0.40;99.90;;;;;;6200760;28;20046;-77
2021/01/13 06:35:02;;;;;;;61.50;24.73;;;0.40;99.90;;;;;;6201121;28;20054;-77
2021/01/13 06:38:09;;;;;;;70.97;29.40;;;0.40;99.90;;;;;;6199623;28;20066;-77
2021/01/13 06:41:12;;;;;;;71.18;29.98;;;0.40;99.90;;;;;;6201633;28;20162;-77
2021/01/13 06:44:14;;;;;;;71.93;27.07;;;0.40;99.90;;;;;;6198792;28;20053;-77
2021/01/13 06:47:16;;;;;;;70.17;25.20;;;0.40;99.90;;;;;;6200727;28;20105;-77
2021/01/13 06:50:33;;;;;;;65.33;26.80;;;0.40;99.90;;;;;;6202634;28;20073;-77
2021/01/13 06:53:36;;;;;;;75.53;28.65;;;0.50;99.90;;;;;;6198025;28;20093;-76
2021/01/13 06:56:47;;;;;;;61.13;26.43;;;0.50;99.90;;;;;;6200818;28;20137;-76
2021/01/13 06:59:48;;;;;;;56.27;25.57;;;0.50;99.90;;;;;;6200380;28;20124;-77
2021/01/13 07:02:50;;;;;;;67.73;29.50;;;0.50;99.90;;;;;;6199849;28;20073;-77
2021/01/13 07:05:51;;;;;;;58.50;27.50;;;0.50;99.90;;;;;;6190012;28;20088;-76
2021/01/13 07:08:53;;;;;;;68.83;27.43;;;0.50;99.90;;;;;;6192038;28;20102;-76
2021/01/13 07:11:56;;;;;;;69.27;27.63;;;0.50;99.90;;;;;;6194345;28;20055;-76
2021/01/13 07:14:59;;;;;;;63.63;26.03;;;0.50;99.90;;;;;;6185899;28;20068;-76
2021/01/13 07:18:02;;;;;;;72.83;26.93;;;0.60;99.90;;;;;;6192913;28;20128;-77
2021/01/13 07:21:08;;;;;;;73.87;27.30;;;0.60;99.90;;;;;;6191813;28;20061;-77
2021/01/13 07:24:14;;;;;;;67.57;26.57;;;0.70;99.90;;;;;;6186533;28;20133;-75
2021/01/13 07:27:17;;;;;;;74.47;26.70;;;0.70;99.90;;;;;;6198553;28;20042;-76
2021/01/13 07:30:19;;;;;;;70.07;25.70;;;0.70;99.90;;;;;;6193198;28;20043;-77
2021/01/13 07:33:21;;;;;;;63.60;25.87;;;0.70;99.90;;;;;;6192292;28;20050;-77
2021/01/13 07:36:30;;;;;;;69.40;27.17;;;0.70;99.90;;;;;;6195516;28;20057;-77
2021/01/13 07:40:15;;;;;;;66.87;27.13;;;0.80;99.90;;;;;;6194295;28;20092;-77
2021/01/13 07:43:45;;;;;;;65.53;27.30;;;0.90;99.90;;;;;;6130691;28;20105;-77
2021/01/13 07:46:59;;;;;;;98.00;30.83;;;1.00;99.90;;;;;;6191002;28;20485;-77
2021/01/13 07:50:07;;;;;;;72.13;29.63;;;1.00;99.90;;;;;;6187907;28;20126;-77
2021/01/13 07:53:11;;;;;;;67.72;22.85;;;1.10;99.90;;;;;;6193974;28;20128;-77
2021/01/13 07:56:13;;;;;;;63.73;25.03;;;1.10;99.90;;;;;;6188799;28;20049;-77
2021/01/13 07:59:34;;;;;;;63.70;25.00;;;1.20;99.90;;;;;;6187895;28;20042;-77
2021/01/13 08:03:09;;;;;;;75.57;26.03;;;1.20;99.90;;;;;;6182072;28;20500;-76
2021/01/13 08:06:30;;;;;;;66.33;26.77;;;1.20;99.90;;;;;;6192156;28;20052;-77
2021/01/13 08:09:35;;;;;;;73.30;25.53;;;1.30;99.90;;;;;;6194486;28;20056;-77
2021/01/13 08:13:25;;;;;;;65.50;26.37;;;1.30;99.90;;;;;;6188775;28;20064;-77
2021/01/13 08:16:56;;;;;;;67.97;26.13;;;1.40;99.90;;;;;;6186195;28;20122;-77
2021/01/13 08:20:26;;;;;;;70.70;26.50;;;1.40;99.90;;;;;;6169599;28;20547;-77
2021/01/13 08:23:37;;;;;;;56.63;23.03;;;1.40;99.90;;;;;;6165549;28;20043;-78
2021/01/13 08:26:39;;;;;;;56.67;25.97;;;1.40;99.90;;;;;;6161287;28;20050;-77
2021/01/13 08:29:42;;;;;;;58.63;22.60;;;1.50;99.90;;;;;;6172664;28;20125;-78
2021/01/13 08:32:48;;;;;;;53.00;23.17;;;1.50;99.90;;;;;;6179802;28;20065;-79
2021/01/13 08:35:56;;;;;;;55.90;23.73;;;1.60;99.90;;;;;;6180527;28;20130;-79
2021/01/13 08:39:10;;;;;;;64.33;23.03;;;1.60;99.90;;;;;;6175486;28;20047;-78
2021/01/13 08:42:23;;;;;;;61.40;25.47;;;1.60;99.90;;;;;;6175485;28;20054;-78
2021/01/13 08:45:34;;;;;;;58.13;23.87;;;1.70;99.90;;;;;;6194015;28;20053;-79
2021/01/13 08:48:39;;;;;;;50.63;23.23;;;1.70;99.90;;;;;;6173206;28;20138;-78
2021/01/13 08:52:16;;;;;;;63.07;25.93;;;1.80;99.90;;;;;;6171837;28;20061;-78
2021/01/13 08:55:19;;;;;;;65.10;23.60;;;1.80;99.90;;;;;;6165261;28;20326;-79
2021/01/13 08:58:27;;;;;;;65.77;24.17;;;1.80;99.90;;;;;;6175594;28;20086;-79
2021/01/13 09:01:37;;;;;;;62.37;24.47;;;1.90;99.90;;;;;;6170522;28;20050;-79
2021/01/13 09:04:51;;;;;;;45.13;21.40;;;1.90;99.90;;;;;;6169448;28;20054;-77
2021/01/13 09:07:54;;;;;;;59.93;22.87;;;2.00;99.90;;;;;;6187871;28;20058;-80
2021/01/13 09:10:56;;;;;;;56.50;24.60;;;2.00;99.90;;;;;;6177740;28;20046;-78
2021/01/13 09:14:17;;;;;;;58.33;23.30;;;2.10;99.90;;;;;;6178635;28;20456;-78
2021/01/13 09:17:19;;;;;;;56.40;25.10;;;2.20;99.90;;;;;;6198782;28;20050;-78
2021/01/13 09:20:24;;;;;;;50.97;23.33;;;2.20;99.90;;;;;;6190942;28;20049;-78
2021/01/13 09:23:27;;;;;;;46.17;19.60;;;2.30;99.90;;;;;;6176836;28;20054;-77
2021/01/13 09:26:34;;;;;;;56.20;24.27;;;2.30;99.90;;;;;;6169684;28;20122;-79
2021/01/13 09:29:48;;;;;;;61.03;22.83;;;2.50;99.90;;;;;;6174600;28;20658;-79
2021/01/13 09:32:53;;;;;;;57.40;25.20;;;2.50;99.90;;;;;;6173429;28;20113;-78
2021/01/13 09:36:00;;;;;;;52.43;22.53;;;2.50;99.90;;;;;;6169676;28;20512;-79
2021/01/13 09:39:13;;;;;;;58.90;26.13;;;2.60;99.90;;;;;;6176845;28;20137;-78
2021/01/13 09:42:17;;;;;;;45.93;25.17;;;2.70;99.90;;;;;;6183047;28;20117;-80
2021/01/13 09:45:19;;;;;;;48.73;25.57;;;2.70;99.90;;;;;;6197976;28;20439;-78
2021/01/13 09:48:20;;;;;;;49.97;25.43;;;2.80;99.90;;;;;;6170296;28;20043;-79
2021/01/13 09:51:23;;;;;;;43.40;24.07;;;2.80;99.90;;;;;;6193587;28;20070;-78
2021/01/13 09:54:24;;;;;;;48.60;24.43;;;2.80;99.90;;;;;;6194674;28;20169;-78
2021/01/13 09:57:30;;;;;;;56.67;26.70;;;2.80;99.90;;;;;;6171900;28;20061;-78
2021/01/13 10:00:37;;;;;;;44.87;23.83;;;2.90;99.90;;;;;;6178392;28;20211;-77
2021/01/13 10:03:39;;;;;;;48.60;27.97;;;2.90;99.90;;;;;;6171369;28;20047;-80
2021/01/13 10:06:43;;;;;;;53.90;25.03;;;3.00;99.90;;;;;;6181605;28;20053;-79
2021/01/13 10:09:44;;;;;;;48.63;25.83;;;3.10;99.90;;;;;;6198996;28;20137;-79
2021/01/13 10:12:49;;;;;;;45.77;23.27;;;3.10;99.90;;;;;;6184313;28;20043;-79
2021/01/13 10:15:51;;;;;;;43.27;23.63;;;3.10;99.90;;;;;;6193545;28;20114;-78
2021/01/13 10:18:54;;;;;;;50.45;22.67;;;3.10;99.90;;;;;;6181845;28;20114;-79
2021/01/13 10:22:02;;;;;;;38.20;20.80;;;3.30;99.90;;;;;;6170319;28;20484;-78
2021/01/13 10:25:04;;;;;;;34.93;21.27;;;3.40;99.90;;;;;;6169861;28;20054;-78
2021/01/13 10:28:11;;;;;;;41.20;24.83;;;3.50;99.90;;;;;;6177217;28;20858;-79
2021/01/13 10:31:24;;;;;;;31.83;18.42;;;3.50;99.90;;;;;;6181111;28;20043;-80
2021/01/13 10:34:25;;;;;;;40.25;20.75;;;3.60;99.90;;;;;;6168177;28;20047;-78
2021/01/13 10:37:40;;;;;;;31.60;18.23;;;3.60;99.90;;;;;;6155688;28;20051;-79
2021/01/13 10:40:46;;;;;;;40.15;21.48;;;3.60;99.90;;;;;;6158639;29;20091;-79
2021/01/13 10:43:57;;;;;;;29.48;19.00;;;3.60;99.90;;;;;;6159335;28;20070;-77
2021/01/13 10:47:00;;;;;;;31.60;18.63;;;3.60;99.90;;;;;;6159822;28;20111;-79
2021/01/13 10:50:02;;;;;;;29.38;18.67;;;3.70;99.90;;;;;;6158950;28;20075;-78
2021/01/13 10:53:05;;;;;;;31.27;17.67;;;3.80;99.90;;;;;;6157231;28;20063;-79
2021/01/13 10:56:15;;;;;;;26.20;16.50;;;3.90;99.90;;;;;;6158606;28;20044;-79
2021/01/13 10:59:17;;;;;;;23.98;15.45;;;4.00;99.90;;;;;;6159906;28;20094;-78
2021/01/13 11:02:19;;;;;;;20.63;14.32;;;4.10;99.90;;;;;;6161702;28;20051;-79
2021/01/13 11:05:21;;;;;;;24.17;14.60;;;4.10;99.90;;;;;;6161057;29;20142;-78
2021/01/13 11:08:25;;;;;;;27.70;14.93;;;4.10;99.90;;;;;;6160114;28;20158;-79
2021/01/13 11:11:28;;;;;;;26.58;13.73;;;4.10;99.90;;;;;;6160985;28;20437;-80
2021/01/13 11:14:41;;;;;;;24.50;15.02;;;4.10;99.90;;;;;;6177491;28;20412;-79
2021/01/13 11:17:43;;;;;;;17.23;13.15;;;4.10;99.90;;;;;;6198123;28;20045;-77
2021/01/13 11:20:48;;;;;;;35.63;17.65;;;4.10;99.90;;;;;;6201302;28;20059;-77
2021/01/13 11:23:51;;;;;;;23.42;14.10;;;4.10;99.90;;;;;;6186110;28;20110;-80
2021/01/13 11:26:55;;;;;;;24.33;14.02;;;4.10;99.90;;;;;;6184129;28;20066;-78
2021/01/13 11:29:56;;;;;;;24.08;15.02;;;4.10;99.90;;;;;;6184239;28;20145;-78
2021/01/13 11:32:59;;;;;;;25.67;13.43;;;4.20;99.90;;;;;;6180055;28;20057;-77
2021/01/13 11:36:01;;;;;;;19.23;14.60;;;4.30;99.90;;;;;;6177775;28;20054;-78
2021/01/13 11:39:07;;;;;;;20.55;13.95;;;4.30;99.90;;;;;;6182810;28;20053;-77
2021/01/13 11:42:21;;;;;;;23.40;12.43;;;4.40;99.90;;;;;;6177945;28;20125;-77
2021/01/13 11:45:29;;;;;;;19.80;12.27;;;4.50;99.90;;;;;;6179852;28;20531;-79
2021/01/13 11:49:10;;;;;;;25.05;13.82;;;4.50;99.90;;;;;;6184211;28;20485;-79
2021/01/13 11:52:16;;;;;;;19.88;12.05;;;4.60;99.90;;;;;;6180537;28;20101;-77
2021/01/13 11:55:25;;;;;;;18.88;11.50;;;4.70;99.90;;;;;;6178148;28;20061;-76
2021/01/13 11:58:28;;;;;;;19.05;9.88;;;4.80;99.90;;;;;;6177167;28;20043;-76
2021/01/13 12:01:33;;;;;;;15.65;11.77;;;4.90;99.90;;;;;;6175808;28;20102;-76
2021/01/13 12:04:42;;;;;;;14.40;8.02;;;5.00;99.90;;;;;;6175182;28;20051;-76
2021/01/13 12:07:56;;;;;;;11.65;8.32;;;5.10;99.90;;;;;;6176000;28;20054;-76
2021/01/13 12:10:58;;;;;;;16.08;9.90;;;5.10;99.60;;;;;;6175583;28;20125;-76
2021/01/13 12:14:03;;;;;;;14.95;9.20;;;5.10;99.20;;;;;;6175841;28;20240;-76
2021/01/13 12:17:04;;;;;;;16.80;8.73;;;5.20;98.70;;;;;;6175802;28;20054;-77
2021/01/13 12:20:07;;;;;;;9.57;7.80;;;5.20;98.30;;;;;;6175891;28;20428;-77
2021/01/13 12:23:16;;;;;;;11.52;6.65;;;5.20;96.70;;;;;;6175434;28;20051;-79
2021/01/13 12:26:21;;;;;;;9.27;6.60;;;5.10;96.80;;;;;;6177218;28;20043;-78
2021/01/13 12:29:23;;;;;;;10.18;6.80;;;5.10;95.50;;;;;;6179300;28;20544;-77
2021/01/13 12:32:26;;;;;;;9.98;6.85;;;5.10;95.20;;;;;;6171104;28;20054;-77
2021/01/13 12:35:29;;;;;;;10.95;6.10;;;5.10;95.80;;;;;;6172280;28;20493;-77
2021/01/13 12:38:37;;;;;;;9.57;6.45;;;5.10;95.20;;;;;;6167176;28;20417;-77
2021/01/13 12:41:39;;;;;;;9.18;5.57;;;5.20;96.10;;;;;;6169787;28;20516;-77
2021/01/13 12:44:41;;;;;;;10.82;6.05;;;5.50;95.10;;;;;;6167723;28;20512;-77
2021/01/13 12:47:42;;;;;;;6.55;3.88;;;5.90;94.40;;;;;;6168616;28;20078;-77
2021/01/13 12:50:43;;;;;;;6.53;4.50;;;6.30;92.70;;;;;;6164212;28;20047;-77
2021/01/13 12:53:45;;;;;;;9.43;4.80;;;6.60;91.50;;;;;;6174220;28;20054;-78
2021/01/13 12:56:48;;;;;;;7.93;3.55;;;6.80;91.60;;;;;;6173008;28;20062;-77
2021/01/13 12:59:49;;;;;;;10.77;4.10;;;7.00;90.60;;;;;;6177856;28;20170;-78
2021/01/13 13:02:51;;;;;;;11.23;7.30;;;7.10;89.70;;;;;;6178247;28;20052;-78
2021/01/13 13:05:52;;;;;;;13.07;6.47;;;7.20;88.40;;;;;;6172220;28;20043;-79
2021/01/13 13:08:55;;;;;;;8.50;4.22;;;7.20;86.80;;;;;;6178379;28;20058;-77
2021/01/13 13:11:58;;;;;;;6.65;3.90;;;7.20;86.50;;;;;;6175055;28;20039;-78
2021/01/13 13:14:59;;;;;;;9.75;3.40;;;7.20;86.00;;;;;;6171936;28;20476;-78
2021/01/13 13:18:00;;;;;;;7.93;5.40;;;7.10;84.60;;;;;;6169836;28;20457;-79
2021/01/13 13:21:02;;;;;;;6.68;4.13;;;6.80;84.90;;;;;;6172168;28;20050;-77
2021/01/13 13:24:04;;;;;;;7.15;4.35;;;6.70;83.20;;;;;;6172770;28;20089;-77
2021/01/13 13:27:08;;;;;;;9.95;4.03;;;6.40;82.60;;;;;;6168783;28;20069;-77
2021/01/13 13:30:11;;;;;;;13.15;4.75;;;6.10;82.20;;;;;;6173940;28;20043;-78
2021/01/13 13:33:12;;;;;;;9.07;4.15;;;6.10;82.70;;;;;;6168707;28;20079;-77
2021/01/13 13:36:14;;;;;;;11.60;4.13;;;6.00;83.10;;;;;;6167534;28;20070;-78
2021/01/13 13:39:16;;;;;;;9.20;6.57;;;5.90;83.60;;;;;;6168365;28;20042;-77
2021/01/13 13:42:18;;;;;;;16.95;11.40;;;5.90;82.80;;;;;;6166718;28;20079;-77
2021/01/13 13:45:20;;;;;;;5.55;4.32;;;5.80;83.10;;;;;;6168877;28;20050;-78
2021/01/13 13:48:22;;;;;;;8.88;5.00;;;5.80;83.60;;;;;;6165855;28;20046;-77
2021/01/13 13:51:23;;;;;;;6.53;3.67;;;5.70;84.30;;;;;;6172446;28;20053;-78
2021/01/13 13:54:24;;;;;;;11.20;5.85;;;5.70;84.60;;;;;;6176435;28;20051;-78
2021/01/13 13:57:27;;;;;;;7.47;4.78;;;5.60;85.20;;;;;;6167678;28;20055;-78
2021/01/13 14:00:28;;;;;;;9.88;5.22;;;5.50;84.40;;;;;;6171449;28;20085;-77
2021/01/13 14:03:29;;;;;;;15.10;9.43;;;5.30;85.50;;;;;;6158539;28;20461;-78
2021/01/13 14:06:31;;;;;;;14.88;10.18;;;5.20;87.10;;;;;;6171855;28;20078;-78
2021/01/13 14:09:32;;;;;;;23.30;11.77;;;5.20;87.00;;;;;;6164227;28;20090;-77
2021/01/13 14:12:34;;;;;;;20.27;8.38;;;5.10;86.40;;;;;;6171584;28;20051;-77
2021/01/13 14:15:36;;;;;;;19.40;11.07;;;5.00;86.70;;;;;;6175673;28;20042;-78
2021/01/13 14:18:37;;;;;;;13.30;9.75;;;4.90;87.20;;;;;;6173364;28;20118;-79
2021/01/13 14:21:39;;;;;;;6.82;5.05;;;4.90;88.70;;;;;;6169035;28;20486;-79
2021/01/13 14:24:40;;;;;;;7.95;5.15;;;4.90;88.60;;;;;;6169853;28;20162;-79
2021/01/13 14:27:42;;;;;;;9.13;4.40;;;4.90;88.90;;;;;;6176261;28;20105;-78
2021/01/13 14:30:43;;;;;;;7.22;5.40;;;4.80;89.30;;;;;;6177867;28;20043;-79
2021/01/13 14:33:45;;;;;;;10.77;5.57;;;4.70;89.60;;;;;;6182802;28;20492;-78
2021/01/13 14:36:46;;;;;;;6.25;4.43;;;4.70;89.50;;;;;;6172386;28;20756;-77
2021/01/13 14:39:48;;;;;;;10.20;6.78;;;4.80;89.00;;;;;;6174465;28;20053;-78
2021/01/13 14:42:50;;;;;;;10.02;8.40;;;4.80;88.60;;;;;;6174844;28;20066;-77
2021/01/13 14:45:51;;;;;;;7.20;4.53;;;4.80;88.00;;;;;;6180516;28;20054;-79
2021/01/13 14:48:53;;;;;;;6.07;4.93;;;4.90;85.70;;;;;;6174466;28;20079;-78
2021/01/13 14:51:54;;;;;;;7.13;5.97;;;4.90;87.10;;;;;;6174387;28;20571;-80
2021/01/13 14:54:59;;;;;;;7.07;4.80;;;5.00;85.80;;;;;;6178614;28;20054;-79
2021/01/13 14:58:01;;;;;;;6.18;4.25;;;5.00;87.40;;;;;;6182924;28;20047;-80
2021/01/13 15:01:03;;;;;;;5.57;4.28;;;4.90;86.70;;;;;;6181637;28;20047;-81
2021/01/13 15:04:05;;;;;;;10.80;6.72;;;4.90;87.60;;;;;;6182419;28;20070;-78
2021/01/13 15:07:06;;;;;;;10.07;4.78;;;4.90;87.70;;;;;;6182838;28;20051;-77
2021/01/13 15:10:08;;;;;;;6.13;3.58;;;4.90;87.40;;;;;;6188206;28;20058;-79
2021/01/13 15:13:26;;;;;;;13.48;5.07;;;4.90;87.60;;;;;;6190249;28;20047;-78
2021/01/13 15:16:29;;;;;;;12.90;4.03;;;4.90;88.10;;;;;;6204341;28;20093;-79
2021/01/13 15:19:30;;;;;;;5.93;4.80;;;4.90;87.80;;;;;;6203717;28;20046;-77
2021/01/13 15:22:32;;;;;;;5.45;3.65;;;4.90;87.40;;;;;;6204263;28;20050;-78
2021/01/13 15:25:33;;;;;;;6.50;5.45;;;4.80;88.30;;;;;;6204823;28;20094;-78
2021/01/13 15:28:36;;;;;;;8.45;7.25;;;4.90;89.00;;;;;;6197282;28;20501;-79
2021/01/13 15:31:37;;;;;;;9.05;5.88;;;4.80;88.70;;;;;;6203174;28;20039;-78
2021/01/13 15:34:39;;;;;;;12.68;11.45;;;5.30;88.90;;;;;;6209528;28;20050;-80
2021/01/13 15:37:42;;;;;;;11.38;8.77;;;4.70;89.10;;;;;;6205386;28;20060;-78
2021/01/13 15:40:44;;;;;;;6.18;4.43;;;4.70;88.90;;;;;;6211703;28;20058;-77
2021/01/13 15:43:46;;;;;;;7.68;5.00;;;4.70;90.10;;;;;;6207838;28;20050;-80
2021/01/13 15:46:48;;;;;;;7.00;4.68;;;4.70;89.90;;;;;;6206826;28;20410;-78
2021/01/13 15:49:50;;;;;;;64.35;43.83;;;4.60;90.10;;;;;;6200794;28;20027;-80
2021/01/13 15:53:19;;;;;;;64.13;44.00;;;4.60;90.10;;;;;;6215682;28;20072;-78
2021/01/13 15:56:21;;;;;;;21.48;15.95;;;4.70;90.10;;;;;;6230769;28;20085;-77
2021/01/13 15:59:27;;;;;;;19.10;12.98;;;4.60;90.40;;;;;;6223102;28;20066;-78